Time;durP1;ratioP1;P1;durP2;ratioP2;P2;SDS_P1;SDS_P2;PMS_P1;PMS_P2;Temp;Humidity;BMP_temperature;BMP_pressure;BME280_temperature;BME280_humidity;BME280_pressure;Samples;Min_cycle;Max_cycle;Signal;HPM_P1;HPM_P2
2023/11/14 00:03:02;;;;;;;;;;;;;;;17.01;51.93;98328.56;10327399;28;860;-74
2023/11/14 00:07:58;;;;;;;;;;;;;;;16.97;51.97;98334.97;10326692;28;1890;-74
2023/11/14 00:12:54;;;;;;;;;;;;;;;16.96;51.94;98322.75;10326515;28;905;-73
2023/11/14 00:17:49;;;;;;;;;;;;;;;16.95;51.84;98321.03;10322295;28;1185;-74
2023/11/14 00:22:45;;;;;;;;;;;;;;;16.93;51.96;98318.53;10286579;28;795;-74
2023/11/14 00:27:42;;;;;;;;;;;;;;;16.89;52.12;98329.34;10286377;28;1890;-74
2023/11/14 00:32:38;;;;;;;;;;;;;;;16.87;51.98;98321.53;10286321;28;1307;-74
2023/11/14 00:37:34;;;;;;;;;;;;;;;16.86;52.25;98310.16;10286333;28;878;-74
2023/11/14 00:42:32;;;;;;;;;;;;;;;16.84;52.24;98314.66;10285355;28;987;-73
2023/11/14 00:47:28;;;;;;;;;;;;;;;16.81;52.02;98321.91;10284977;28;1910;-73
2023/11/14 00:52:24;;;;;;;;;;;;;;;16.81;52.17;98330.66;10285036;28;843;-73
2023/11/14 00:57:20;;;;;;;;;;;;;;;16.80;52.24;98325.50;10284840;28;1029;-74
2023/11/14 01:02:16;;;;;;;;;;;;;;;16.78;52.00;98314.22;10285289;28;881;-74
2023/11/14 01:07:12;;;;;;;;;;;;;;;16.77;52.20;98317.75;10284601;28;1894;-74
2023/11/14 01:12:08;;;;;;;;;;;;;;;16.73;52.09;98301.31;10284625;28;795;-74
2023/11/14 01:17:04;;;;;;;;;;;;;;;16.71;52.17;98326.84;10283557;28;963;-74
2023/11/14 01:22:00;;;;;;;;;;;;;;;16.70;52.21;98319.06;10284707;28;795;-74
2023/11/14 01:26:55;;;;;;;;;;;;;;;16.71;52.10;98320.75;10292716;28;1973;-74
2023/11/14 01:31:53;;;;;;;;;;;;;;;16.69;52.33;98322.63;10292168;28;1204;-74
2023/11/14 01:36:49;;;;;;;;;;;;;;;16.67;52.09;98324.53;10292947;28;886;-74
2023/11/14 01:41:45;;;;;;;;;;;;;;;16.67;52.22;98314.00;10292227;28;775;-74
2023/11/14 01:46:41;;;;;;;;;;;;;;;16.62;52.19;98319.53;10292441;28;934;-74
2023/11/14 01:51:36;;;;;;;;;;;;;;;16.62;52.10;98330.91;10291765;28;1902;-74
2023/11/14 01:56:33;;;;;;;;;;;;;;;16.62;52.08;98322.16;10291675;28;926;-74
2023/11/14 02:01:29;;;;;;;;;;;;;;;16.61;52.32;98331.84;10291478;28;962;-74
2023/11/14 02:06:25;;;;;;;;;;;;;;;16.57;52.43;98325.06;10291552;28;928;-73
2023/11/14 02:11:20;;;;;;;;;;;;;;;16.59;52.10;98335.50;10291586;28;1886;-74
2023/11/14 02:16:16;;;;;;;;;;;;;;;16.59;52.10;98343.41;10290840;28;834;-74
2023/11/14 02:21:12;;;;;;;;;;;;;;;16.57;52.29;98346.13;10290735;28;792;-73
2023/11/14 02:26:08;;;;;;;;;;;;;;;16.56;52.32;98338.34;10290540;28;814;-74
2023/11/14 02:31:04;;;;;;;;;;;;;;;16.56;52.11;98347.06;10291183;28;1906;-73
2023/11/14 02:36:00;;;;;;;;;;;;;;;16.56;52.13;98343.59;10289786;28;945;-73
2023/11/14 02:40:56;;;;;;;;;;;;;;;16.54;52.19;98346.31;10289983;28;936;-74
2023/11/14 02:45:52;;;;;;;;;;;;;;;16.54;52.27;98354.19;10289814;28;889;-74
2023/11/14 02:50:48;;;;;;;;;;;;;;;16.52;52.18;98371.00;10289521;28;1975;-74
2023/11/14 02:55:45;;;;;;;;;;;;;;;16.50;52.19;98378.97;10289959;28;861;-74
2023/11/14 03:00:48;;;;;;;;;;;;;;;16.49;52.29;98400.13;10290052;28;869;-74
2023/11/14 03:05:44;;;;;;;;;;;;;;;16.47;52.41;98386.22;10289673;28;760;-74
2023/11/14 03:10:40;;;;;;;;;;;;;;;16.47;52.22;98375.69;10289372;28;1958;-74
2023/11/14 03:15:36;;;;;;;;;;;;;;;16.47;52.15;98388.84;10288793;28;863;-74
2023/11/14 03:20:32;;;;;;;;;;;;;;;16.44;52.33;98382.81;10288452;28;891;-74
2023/11/14 03:25:28;;;;;;;;;;;;;;;16.46;52.26;98397.69;10288312;28;866;-74
2023/11/14 03:30:24;;;;;;;;;;;;;;;16.43;52.42;98381.16;10288219;28;1965;-74
2023/11/14 03:35:20;;;;;;;;;;;;;;;16.43;52.25;98386.41;10287863;28;924;-73
2023/11/14 03:40:16;;;;;;;;;;;;;;;16.42;52.11;98389.94;10288279;28;968;-74
2023/11/14 03:45:12;;;;;;;;;;;;;;;16.41;52.21;98383.00;10286168;28;1036;-74
2023/11/14 03:50:08;;;;;;;;;;;;;;;16.40;52.16;98401.50;10287605;28;1913;-74
2023/11/14 03:55:03;;;;;;;;;;;;;;;16.39;52.15;98392.78;10287721;28;894;-74
2023/11/14 03:59:59;;;;;;;;;;;;;;;16.38;52.32;98409.50;10287051;28;1003;-74
2023/11/14 04:04:55;;;;;;;;;;;;;;;16.38;52.28;98413.91;10287335;28;893;-74
2023/11/14 04:09:51;;;;;;;;;;;;;;;16.38;52.33;98387.63;10286456;28;1961;-74
2023/11/14 04:14:47;;;;;;;;;;;;;;;16.36;52.22;98414.00;10287214;28;848;-74
2023/11/14 04:19:44;;;;;;;;;;;;;;;16.36;52.30;98394.75;10286036;28;895;-74
2023/11/14 04:24:40;;;;;;;;;;;;;;;16.35;52.29;98422.81;10285952;28;857;-74
2023/11/14 04:29:36;;;;;;;;;;;;;;;16.35;52.34;98400.94;10286204;28;1951;-74
2023/11/14 04:34:33;;;;;;;;;;;;;;;16.34;52.28;98410.59;10285644;28;775;-74
2023/11/14 04:39:29;;;;;;;;;;;;;;;16.32;52.37;98412.50;10285975;28;924;-74
2023/11/14 04:44:25;;;;;;;;;;;;;;;16.33;52.18;98403.66;10285776;28;855;-74
2023/11/14 04:49:21;;;;;;;;;;;;;;;16.32;52.17;98422.13;10284800;28;1918;-74
2023/11/14 04:54:17;;;;;;;;;;;;;;;16.30;52.19;98411.72;10285066;28;918;-73
2023/11/14 04:59:13;;;;;;;;;;;;;;;16.37;51.93;98406.94;10286199;28;948;-73
2023/11/14 05:04:09;;;;;;;;;;;;;;;16.42;51.65;98413.63;10284792;28;972;-74
2023/11/14 05:09:05;;;;;;;;;;;;;;;16.49;51.51;98411.50;10284613;28;1894;-74
2023/11/14 05:14:02;;;;;;;;;;;;;;;16.56;51.30;98401.47;10284550;28;892;-73
2023/11/14 05:18:58;;;;;;;;;;;;;;;16.56;51.44;98397.03;10284699;28;815;-73
2023/11/14 05:23:54;;;;;;;;;;;;;;;16.69;51.15;98398.91;10283781;28;855;-73
2023/11/14 05:28:49;;;;;;;;;;;;;;;16.78;50.77;98407.16;10284252;28;1955;-76
2023/11/14 05:33:46;;;;;;;;;;;;;;;16.83;50.73;98405.09;10283732;28;938;-74
2023/11/14 05:38:41;;;;;;;;;;;;;;;17.00;50.50;98422.50;10284032;28;972;-77
2023/11/14 05:43:37;;;;;;;;;;;;;;;17.11;50.61;98426.22;10283456;28;925;-77
2023/11/14 05:48:33;;;;;;;;;;;;;;;17.13;50.74;98430.47;10283752;28;1979;-74
2023/11/14 05:53:29;;;;;;;;;;;;;;;17.17;50.77;98434.63;10283230;28;902;-78
2023/11/14 05:58:25;;;;;;;;;;;;;;;17.23;50.58;98433.38;10284555;28;897;-78
2023/11/14 06:03:21;;;;;;;;;;;;;;;17.22;50.73;98435.19;10283599;28;759;-75
2023/11/14 06:08:17;;;;;;;;;;;;;;;17.29;50.83;98456.69;10284146;28;1886;-75
2023/11/14 06:13:13;;;;;;;;;;;;;;;17.32;50.58;98469.69;10291741;28;944;-74
2023/11/14 06:18:09;;;;;;;;;;;;;;;17.31;50.61;98439.03;10290643;28;889;-74
2023/11/14 06:23:05;;;;;;;;;;;;;;;17.32;50.82;98448.63;10290678;28;791;-75
2023/11/14 06:28:01;;;;;;;;;;;;;;;17.34;50.74;98459.88;10303452;28;1951;-76
2023/11/14 06:32:57;;;;;;;;;;;;;;;17.34;50.47;98456.41;10329038;28;1132;-75
2023/11/14 06:37:55;;;;;;;;;;;;;;;17.37;50.37;98465.00;10329611;28;1052;-76
2023/11/14 06:42:51;;;;;;;;;;;;;;;17.41;50.57;98479.66;10329763;28;873;-76
2023/11/14 06:47:47;;;;;;;;;;;;;;;17.40;50.58;98471.88;10330021;28;1906;-74
2023/11/14 06:52:43;;;;;;;;;;;;;;;17.41;50.43;98470.91;10329998;28;878;-75
2023/11/14 06:57:41;;;;;;;;;;;;;;;17.45;50.32;98478.53;10329620;28;933;-74
2023/11/14 07:02:38;;;;;;;;;;;;;;;17.43;50.42;98492.75;10329564;28;969;-74
2023/11/14 07:07:33;;;;;;;;;;;;;;;17.40;50.20;98483.25;10328603;28;1943;-72
2023/11/14 07:12:29;;;;;;;;;;;;;;;17.38;50.46;98502.72;10329132;28;818;-74
2023/11/14 07:17:25;;;;;;;;;;;;;;;17.36;50.58;98494.06;10328897;28;853;-74
2023/11/14 07:22:21;;;;;;;;;;;;;;;17.31;50.44;98510.13;10328180;28;806;-73
2023/11/14 07:27:17;;;;;;;;;;;;;;;17.28;50.71;98512.94;10328439;28;1910;-73
2023/11/14 07:32:13;;;;;;;;;;;;;;;17.25;50.81;98497.34;10328578;28;1065;-72
2023/11/14 07:37:09;;;;;;;;;;;;;;;17.23;50.75;98518.50;10328118;28;786;-72
2023/11/14 07:42:04;;;;;;;;;;;;;;;17.21;50.76;98541.47;10327888;28;735;-72
2023/11/14 07:47:00;;;;;;;;;;;;;;;17.20;50.86;98529.22;10328360;28;1910;-75
2023/11/14 07:51:56;;;;;;;;;;;;;;;17.20;50.50;98545.00;10327930;28;814;-74
2023/11/14 07:56:52;;;;;;;;;;;;;;;17.14;50.61;98537.50;10310146;28;1043;-73
2023/11/14 08:01:48;;;;;;;;;;;;;;;17.23;50.44;98510.59;10286747;28;879;-73
2023/11/14 08:06:44;;;;;;;;;;;;;;;17.28;50.02;98508.53;10285956;28;763;-72
2023/11/14 08:11:40;;;;;;;;;;;;;;;17.30;50.40;98513.72;10285367;28;1963;-73
2023/11/14 08:16:37;;;;;;;;;;;;;;;17.37;50.16;98501.00;10286065;28;782;-74
2023/11/14 08:21:34;;;;;;;;;;;;;;;17.36;50.33;98487.00;10285131;28;786;-73
2023/11/14 08:26:29;;;;;;;;;;;;;;;17.35;50.17;98477.41;10287488;28;1213;-78
2023/11/14 08:31:25;;;;;;;;;;;;;;;17.37;50.05;98483.44;10325395;28;1952;-73
2023/11/14 08:36:21;;;;;;;;;;;;;;;17.36;50.02;98494.06;10326604;28;817;-73
2023/11/14 08:41:17;;;;;;;;;;;;;;;17.34;50.27;98495.94;10325974;28;880;-72
2023/11/14 08:46:14;;;;;;;;;;;;;;;17.36;50.41;98517.75;10325823;28;893;-72
2023/11/14 08:51:10;;;;;;;;;;;;;;;17.37;50.73;98516.81;10325417;28;1913;-72
2023/11/14 08:56:06;;;;;;;;;;;;;;;17.35;50.81;98521.34;10325704;28;939;-72
2023/11/14 09:01:03;;;;;;;;;;;;;;;17.40;51.27;98514.00;10324385;28;1196;-72
2023/11/14 09:05:59;;;;;;;;;;;;;;;17.37;50.81;98504.50;10325392;28;909;-73
2023/11/14 09:10:55;;;;;;;;;;;;;;;17.41;51.25;98518.31;10325317;28;1965;-72
2023/11/14 09:15:51;;;;;;;;;;;;;;;17.41;51.07;98518.31;10325668;28;806;-72
2023/11/14 09:20:47;;;;;;;;;;;;;;;17.45;51.41;98511.94;10322925;28;1104;-72
2023/11/14 09:25:43;;;;;;;;;;;;;;;17.50;51.11;98521.25;10325408;28;850;-72
2023/11/14 09:30:39;;;;;;;;;;;;;;;17.47;50.96;98528.47;10325198;28;1965;-73
2023/11/14 09:35:35;;;;;;;;;;;;;;;17.49;51.14;98529.22;10324634;28;834;-72
2023/11/14 09:40:30;;;;;;;;;;;;;;;17.53;50.71;98526.31;10325089;28;917;-72
2023/11/14 09:45:27;;;;;;;;;;;;;;;17.50;51.03;98528.28;10329227;28;893;-73
2023/11/14 09:50:23;;;;;;;;;;;;;;;17.52;50.87;98514.06;10332122;28;1914;-72
2023/11/14 09:55:19;;;;;;;;;;;;;;;17.57;50.73;98531.41;10327351;28;1917;-72
2023/11/14 10:00:15;;;;;;;;;;;;;;;17.56;50.88;98508.63;10303217;28;1811;-73
2023/11/14 10:05:11;;;;;;;;;;;;;;;17.51;51.02;98530.84;10291736;28;798;-72
2023/11/14 10:10:07;;;;;;;;;;;;;;;17.60;50.72;98547.00;10290417;28;1898;-72
2023/11/14 10:15:03;;;;;;;;;;;;;;;17.63;50.75;98544.19;10291418;28;917;-72
2023/11/14 10:19:59;;;;;;;;;;;;;;;17.59;50.72;98548.81;10290156;28;878;-72
2023/11/14 10:24:55;;;;;;;;;;;;;;;17.64;50.63;98549.38;10290371;28;837;-72
2023/11/14 10:29:51;;;;;;;;;;;;;;;17.64;50.60;98561.72;10290537;28;1902;-72
2023/11/14 10:34:47;;;;;;;;;;;;;;;17.61;50.64;98554.84;10290455;28;822;-72
2023/11/14 10:39:43;;;;;;;;;;;;;;;17.57;50.86;98540.16;10289751;28;873;-72
2023/11/14 10:44:39;;;;;;;;;;;;;;;17.62;50.62;98545.97;10289899;28;861;-72
2023/11/14 10:49:34;;;;;;;;;;;;;;;17.64;50.60;98541.47;10289809;28;1974;-74
2023/11/14 10:54:30;;;;;;;;;;;;;;;17.60;50.57;98526.78;10289859;28;1687;-71
2023/11/14 10:59:26;;;;;;;;;;;;;;;17.63;50.96;98517.84;10315325;28;1680;-72
2023/11/14 11:04:22;;;;;;;;;;;;;;;17.67;50.54;98522.81;10326140;28;1050;-72
2023/11/14 11:09:18;;;;;;;;;;;;;;;17.62;50.63;98517.00;10327761;28;1953;-72
2023/11/14 11:14:14;;;;;;;;;;;;;;;17.60;50.78;98521.50;10328844;28;973;-73
2023/11/14 11:19:10;;;;;;;;;;;;;;;17.63;50.87;98508.16;10328905;28;876;-72
2023/11/14 11:24:07;;;;;;;;;;;;;;;17.63;50.74;98502.03;10328835;28;1533;-73
2023/11/14 11:29:04;;;;;;;;;;;;;;;17.62;50.55;98498.53;10328053;28;1950;-71
2023/11/14 11:34:00;;;;;;;;;;;;;;;17.62;50.92;98495.91;10329462;28;932;-73
2023/11/14 11:38:56;;;;;;;;;;;;;;;17.66;50.61;98496.59;10327742;28;907;-74
2023/11/14 11:43:52;;;;;;;;;;;;;;;17.67;50.79;98490.38;10327907;28;806;-74
2023/11/14 11:48:48;;;;;;;;;;;;;;;17.66;50.81;98478.97;10327497;28;1977;-74
2023/11/14 11:53:44;;;;;;;;;;;;;;;17.67;50.78;98478.03;10327530;28;901;-74
2023/11/14 11:58:40;;;;;;;;;;;;;;;17.70;50.90;98480.47;10326394;28;980;-74
2023/11/14 12:03:36;;;;;;;;;;;;;;;17.70;50.50;98485.72;10293529;28;932;-76
2023/11/14 12:08:32;;;;;;;;;;;;;;;17.65;51.14;98482.53;10285916;28;1890;-79
2023/11/14 12:13:28;;;;;;;;;;;;;;;17.53;51.19;98475.44;10282780;28;1263;-78
2023/11/14 12:18:24;;;;;;;;;;;;;;;17.51;51.27;98485.22;10286961;28;810;-75
2023/11/14 12:23:20;;;;;;;;;;;;;;;17.48;51.13;98478.34;10285763;28;870;-78
2023/11/14 12:28:16;;;;;;;;;;;;;;;17.46;51.24;98479.38;10285291;28;1949;-75
2023/11/14 12:33:16;;;;;;;;;;;;;;;17.47;51.02;98465.25;10283596;28;1358;-75
2023/11/14 12:38:11;;;;;;;;;;;;;;;17.46;51.15;98463.56;10284645;28;804;-75
2023/11/14 12:43:08;;;;;;;;;;;;;;;17.47;51.23;98459.97;10284518;28;972;-76
2023/11/14 12:48:03;;;;;;;;;;;;;;;17.48;50.94;98445.88;10283063;28;1914;-75
2023/11/14 12:52:59;;;;;;;;;;;;;;;17.48;51.08;98449.38;10283070;28;975;-75
2023/11/14 12:57:55;;;;;;;;;;;;;;;17.47;50.96;98457.34;10284073;28;815;-76
2023/11/14 13:02:51;;;;;;;;;;;;;;;17.46;51.01;98439.88;10283344;28;818;-76
2023/11/14 13:07:49;;;;;;;;;;;;;;;17.47;51.08;98457.34;10283118;28;1890;-76
2023/11/14 13:12:45;;;;;;;;;;;;;;;17.45;50.93;98452.19;10283721;28;856;-76
2023/11/14 13:17:41;;;;;;;;;;;;;;;17.46;51.03;98442.50;10281628;28;1055;-76
2023/11/14 13:22:37;;;;;;;;;;;;;;;17.48;50.78;98430.09;10277957;28;1118;-77
2023/11/14 13:27:33;;;;;;;;;;;;;;;17.49;50.86;98423.84;10283258;28;1894;-76
2023/11/14 13:32:31;;;;;;;;;;;;;;;17.49;50.85;98415.97;10244969;28;1088650;-76
2023/11/14 13:37:26;;;;;;;;;;;;;;;17.48;50.98;98422.19;10284117;28;964;-76
2023/11/14 13:42:22;;;;;;;;;;;;;;;17.52;50.77;98394.69;10283767;28;861;-76
2023/11/14 13:47:18;;;;;;;;;;;;;;;17.52;50.75;98390.25;10283245;28;1914;-76
2023/11/14 13:52:14;;;;;;;;;;;;;;;17.49;50.85;98374.66;10284473;28;797;-76
2023/11/14 13:57:11;;;;;;;;;;;;;;;17.50;50.86;98370.22;10284304;28;934;-76
2023/11/14 14:02:08;;;;;;;;;;;;;;;17.50;50.64;98373.72;10284280;28;849;-78
2023/11/14 14:07:04;;;;;;;;;;;;;;;17.49;50.70;98365.91;10284156;28;961;-78
2023/11/14 14:12:00;;;;;;;;;;;;;;;17.68;50.84;98365.56;10284003;28;1882;-78
2023/11/14 14:16:56;;;;;;;;;;;;;;;17.59;50.77;98377.53;10283588;28;1128;-78
2023/11/14 14:21:53;;;;;;;;;;;;;;;17.58;51.17;98369.72;10283997;28;775;-78
2023/11/14 14:26:50;;;;;;;;;;;;;;;17.55;51.11;98369.94;10282596;28;1077;-78
2023/11/14 14:31:46;;;;;;;;;;;;;;;17.52;51.06;98361.28;10288346;28;1894;-78
2023/11/14 14:36:42;;;;;;;;;;;;;;;17.55;51.01;98359.41;10290172;28;1203;-77
2023/11/14 14:41:40;;;;;;;;;;;;;;;17.54;50.97;98350.66;10289567;28;1111;-78
2023/11/14 14:46:36;;;;;;;;;;;;;;;17.52;50.92;98355.16;10290256;28;881;-77
2023/11/14 14:51:32;;;;;;;;;;;;;;;17.53;50.77;98351.59;10290196;28;1910;-78
2023/11/14 14:56:27;;;;;;;;;;;;;;;17.52;50.82;98350.72;10290161;28;842;-78
2023/11/14 15:01:23;;;;;;;;;;;;;;;17.50;50.99;98336.84;10289381;28;871;-78
2023/11/14 15:06:19;;;;;;;;;;;;;;;17.50;51.14;98326.31;10289739;28;896;-78
2023/11/14 15:11:15;;;;;;;;;;;;;;;17.53;50.97;98320.00;10288788;28;1894;-83
2023/11/14 15:16:12;;;;;;;;;;;;;;;17.51;50.85;98321.88;10316859;28;999;-84
2023/11/14 15:21:10;;;;;;;;;;;;;;;17.50;51.10;98325.44;10328737;28;844;-78
2023/11/14 15:26:06;;;;;;;;;;;;;;;17.52;50.92;98326.19;10329521;28;869;-78
2023/11/14 15:31:02;;;;;;;;;;;;;;;17.53;50.92;98320.00;10328250;28;1948;-77
2023/11/14 15:35:58;;;;;;;;;;;;;;;17.51;50.96;98306.91;10328644;28;778;-81
2023/11/14 15:40:54;;;;;;;;;;;;;;;17.52;51.06;98307.75;10327784;28;935;-77
2023/11/14 15:45:50;;;;;;;;;;;;;;;17.70;50.77;98300.44;10315384;28;963;-74
2023/11/14 15:50:48;;;;;;;;;;;;;;;17.76;50.89;98294.75;10287066;28;1910;-74
2023/11/14 15:55:44;;;;;;;;;;;;;;;17.80;50.96;98298.91;10286832;28;980;-75
2023/11/14 16:00:40;;;;;;;;;;;;;;;17.82;50.90;98294.38;10287157;28;850;-75
2023/11/14 16:05:36;;;;;;;;;;;;;;;17.81;51.04;98286.56;10287195;28;782;-78
2023/11/14 16:10:33;;;;;;;;;;;;;;;17.65;51.44;98290.19;10286518;28;1915;-78
2023/11/14 16:15:29;;;;;;;;;;;;;;;17.58;51.67;98288.94;10286104;28;997;-77
2023/11/14 16:20:26;;;;;;;;;;;;;;;17.57;51.65;98289.00;10286097;28;877;-77
2023/11/14 16:25:22;;;;;;;;;;;;;;;17.54;51.44;98276.88;10286368;28;783;-77
2023/11/14 16:30:20;;;;;;;;;;;;;;;17.51;51.61;98270.03;10285552;28;2042;-73
2023/11/14 16:35:16;;;;;;;;;;;;;;;17.65;51.28;98261.19;10285261;28;878;-71
2023/11/14 16:40:12;;;;;;;;;;;;;;;17.75;51.16;98248.25;10284960;28;1176;-79
2023/11/14 16:45:08;;;;;;;;;;;;;;;17.65;51.42;98253.28;10284996;28;802;-86
2023/11/14 16:50:03;;;;;;;;;;;;;;;17.61;51.49;98251.81;10285126;28;1914;-80
2023/11/14 16:54:59;;;;;;;;;;;;;;;17.61;51.54;98254.47;10283874;28;853;-81
2023/11/14 16:59:55;;;;;;;;;;;;;;;17.60;51.50;98252.75;10284132;28;898;-81
2023/11/14 17:04:51;;;;;;;;;;;;;;;17.60;51.39;98258.03;10285119;28;815;-81
2023/11/14 17:09:47;;;;;;;;;;;;;;;17.63;51.31;98251.72;10284405;28;1897;-80
2023/11/14 17:14:43;;;;;;;;;;;;;;;17.61;51.45;98258.91;10301922;28;1078;-86
2023/11/14 17:19:39;;;;;;;;;;;;;;;17.62;51.38;98260.56;10325631;28;873;-85
2023/11/14 17:24:35;;;;;;;;;;;;;;;17.59;51.50;98250.25;10325481;28;776;-86
2023/11/14 17:29:31;;;;;;;;;;;;;;;17.58;51.51;98245.91;10324423;28;1893;-85
2023/11/14 17:34:26;;;;;;;;;;;;;;;17.53;51.54;98230.41;10324107;28;909;-86
2023/11/14 17:39:22;;;;;;;;;;;;;;;17.51;51.41;98227.03;10324292;28;948;-72
2023/11/14 17:44:21;;;;;;;;;;;;;;;17.66;51.66;98220.75;10324853;28;982;-72
2023/11/14 17:49:17;;;;;;;;;;;;;;;17.72;51.58;98211.59;10324656;28;1968;-72
2023/11/14 17:54:13;;;;;;;;;;;;;;;17.77;51.80;98200.75;10324570;28;964;-72
2023/11/14 17:59:09;;;;;;;;;;;;;;;17.80;51.65;98206.66;10324024;28;845;-71
2023/11/14 18:04:05;;;;;;;;;;;;;;;17.80;51.85;98192.66;10325579;28;911;-71
2023/11/14 18:09:01;;;;;;;;;;;;;;;17.83;52.02;98177.47;10332657;28;1973;-71
2023/11/14 18:13:56;;;;;;;;;;;;;;;17.83;51.89;98164.28;10331868;28;957;-72
2023/11/14 18:18:53;;;;;;;;;;;;;;;17.83;51.80;98160.81;10331732;28;873;-71
2023/11/14 18:23:49;;;;;;;;;;;;;;;17.86;51.78;98147.41;10332337;28;946;-71
2023/11/14 18:28:45;;;;;;;;;;;;;;;17.88;51.68;98129.72;10331750;28;1898;-71
2023/11/14 18:33:41;;;;;;;;;;;;;;;17.89;51.57;98126.13;10332143;28;890;-71
2023/11/14 18:38:39;;;;;;;;;;;;;;;17.90;51.53;98127.81;10330469;28;889;-71
2023/11/14 18:43:35;;;;;;;;;;;;;;;17.95;51.46;98125.72;10330880;28;829;-71
2023/11/14 18:48:31;;;;;;;;;;;;;;;17.93;51.50;98117.06;10331270;28;1973;-71
2023/11/14 18:53:27;;;;;;;;;;;;;;;17.96;51.28;98111.56;10331035;28;780;-71
2023/11/14 18:58:23;;;;;;;;;;;;;;;17.98;51.32;98107.03;10330903;28;850;-72
2023/11/14 19:03:18;;;;;;;;;;;;;;;17.99;51.14;98094.69;10330162;28;846;-72
2023/11/14 19:08:14;;;;;;;;;;;;;;;17.96;51.43;98087.84;10329876;28;1905;-71
2023/11/14 19:13:10;;;;;;;;;;;;;;;18.01;51.45;98093.63;10329757;28;794;-71
2023/11/14 19:18:06;;;;;;;;;;;;;;;18.00;51.18;98089.31;10329476;28;868;-72
2023/11/14 19:23:04;;;;;;;;;;;;;;;17.99;51.28;98082.34;10330497;28;854;-71
2023/11/14 19:28:00;;;;;;;;;;;;;;;18.01;51.31;98075.19;10329153;28;1906;-71
2023/11/14 19:32:56;;;;;;;;;;;;;;;18.05;51.17;98089.84;10328927;28;1455;-71
2023/11/14 19:37:52;;;;;;;;;;;;;;;18.05;51.14;98083.69;10328795;28;867;-71
2023/11/14 19:42:48;;;;;;;;;;;;;;;18.03;51.33;98094.38;10328604;28;798;-71
2023/11/14 19:47:44;;;;;;;;;;;;;;;18.05;51.21;98110.06;10328933;28;1898;-71
2023/11/14 19:52:40;;;;;;;;;;;;;;;18.07;51.26;98134.53;10328804;28;984;-71
2023/11/14 19:57:36;;;;;;;;;;;;;;;18.05;51.34;98161.03;10328042;28;913;-71
2023/11/14 20:02:32;;;;;;;;;;;;;;;18.06;51.13;98181.16;10328384;28;861;-72
2023/11/14 20:07:27;;;;;;;;;;;;;;;18.08;51.34;98197.72;10326895;28;1963;-71
2023/11/14 20:12:23;;;;;;;;;;;;;;;18.08;51.10;98207.44;10328468;28;822;-71
2023/11/14 20:17:20;;;;;;;;;;;;;;;18.08;51.20;98229.38;10327206;28;810;-71
2023/11/14 20:22:15;;;;;;;;;;;;;;;18.12;50.92;98240.53;10327566;28;892;-71
2023/11/14 20:27:11;;;;;;;;;;;;;;;18.11;51.14;98257.31;10326926;28;900;-71
2023/11/14 20:32:07;;;;;;;;;;;;;;;18.10;51.07;98267.03;10327554;28;1866;-71
2023/11/14 20:37:03;;;;;;;;;;;;;;;18.10;51.24;98285.47;10327054;28;846;-71
2023/11/14 20:41:59;;;;;;;;;;;;;;;18.11;50.99;98308.25;10326396;28;964;-72
2023/11/14 20:46:55;;;;;;;;;;;;;;;18.09;51.26;98327.75;10325584;28;933;-72
2023/11/14 20:51:51;;;;;;;;;;;;;;;18.06;51.21;98334.09;10325964;28;1971;-71
2023/11/14 20:56:46;;;;;;;;;;;;;;;18.04;51.16;98351.78;10326394;28;1062;-71
2023/11/14 21:01:42;;;;;;;;;;;;;;;18.05;51.15;98358.78;10326345;28;843;-71
2023/11/14 21:06:39;;;;;;;;;;;;;;;18.05;51.27;98357.91;10325061;28;832;-71
2023/11/14 21:11:36;;;;;;;;;;;;;;;18.05;51.32;98371.09;10325432;28;1955;-71
2023/11/14 21:16:32;;;;;;;;;;;;;;;18.01;51.23;98375.72;10326079;28;819;-71
2023/11/14 21:21:27;;;;;;;;;;;;;;;17.99;51.48;98384.69;10325926;28;800;-72
2023/11/14 21:26:23;;;;;;;;;;;;;;;18.00;51.24;98397.78;10325869;28;838;-71
2023/11/14 21:31:20;;;;;;;;;;;;;;;18.03;51.32;98407.28;10325451;28;1894;-71
2023/11/14 21:36:16;;;;;;;;;;;;;;;18.02;51.20;98416.13;10325577;28;1007;-72
2023/11/14 21:41:12;;;;;;;;;;;;;;;17.99;51.21;98427.72;10329121;28;968;-72
2023/11/14 21:46:08;;;;;;;;;;;;;;;17.95;51.30;98437.63;10333110;28;1619;-71
2023/11/14 21:51:04;;;;;;;;;;;;;;;17.94;51.25;98456.16;10332851;28;1918;-72
2023/11/14 21:55:59;;;;;;;;;;;;;;;17.96;51.17;98464.81;10332785;28;789;-72
2023/11/14 22:00:56;;;;;;;;;;;;;;;17.96;51.50;98475.38;10332582;28;810;-72
2023/11/14 22:05:52;;;;;;;;;;;;;;;17.93;51.39;98486.94;10332308;28;925;-71
2023/11/14 22:10:48;;;;;;;;;;;;;;;17.88;51.36;98489.03;10331540;28;1956;-71
2023/11/14 22:15:44;;;;;;;;;;;;;;;17.85;51.48;98498.94;10331954;28;889;-71
2023/11/14 22:20:40;;;;;;;;;;;;;;;17.82;51.67;98509.69;10331634;28;874;-71
2023/11/14 22:25:36;;;;;;;;;;;;;;;17.79;51.53;98528.25;10332763;28;976;-72
2023/11/14 22:30:32;;;;;;;;;;;;;;;17.75;51.58;98538.16;10331125;28;1894;-71
2023/11/14 22:35:28;;;;;;;;;;;;;;;17.73;51.54;98553.22;10331232;28;869;-71
2023/11/14 22:40:23;;;;;;;;;;;;;;;17.70;51.71;98561.31;10330573;28;795;-71
2023/11/14 22:45:19;;;;;;;;;;;;;;;17.66;51.64;98573.00;10330864;28;917;-72
2023/11/14 22:50:15;;;;;;;;;;;;;;;17.66;51.72;98588.81;10330192;28;1977;-72
2023/11/14 22:55:11;;;;;;;;;;;;;;;17.63;51.65;98596.88;10330498;28;790;-71
2023/11/14 23:00:20;;;;;;;;;;;;;;;17.58;51.58;98620.91;10330380;28;790;-71
2023/11/14 23:05:15;;;;;;;;;;;;;;;17.53;51.68;98626.44;10330703;28;969;-71
2023/11/14 23:10:11;;;;;;;;;;;;;;;17.51;51.75;98633.59;10329969;28;1894;-71
2023/11/14 23:15:09;;;;;;;;;;;;;;;17.48;52.00;98646.09;10330418;28;859;-71
2023/11/14 23:20:10;;;;;;;;;;;;;;;17.46;51.99;98650.59;10328989;28;831;-71
2023/11/14 23:25:06;;;;;;;;;;;;;;;17.40;52.06;98656.25;10328770;28;1249;-71
2023/11/14 23:30:02;;;;;;;;;;;;;;;17.36;52.17;98674.00;10328950;28;1894;-71
2023/11/14 23:34:59;;;;;;;;;;;;;;;17.35;52.34;98679.38;10329644;28;886;-71
2023/11/14 23:39:54;;;;;;;;;;;;;;;17.33;52.17;98697.88;10328753;28;992;-71
2023/11/14 23:44:50;;;;;;;;;;;;;;;17.30;52.40;98704.19;10328595;28;872;-71
2023/11/14 23:49:46;;;;;;;;;;;;;;;17.30;52.06;98713.88;10328400;28;1918;-71
2023/11/14 23:54:43;;;;;;;;;;;;;;;17.28;52.23;98721.00;10328146;28;929;-71
2023/11/14 23:59:39;;;;;;;;;;;;;;;17.26;52.30;98728.13;10328888;28;937;-71
